Time;durP1;ratioP1;P1;durP2;ratioP2;P2;SDS_P1;SDS_P2;PMS_P1;PMS_P2;Temp;Humidity;BMP_temperature;BMP_pressure;BME280_temperature;BME280_humidity;BME280_pressure;Samples;Min_cycle;Max_cycle;Signal;HPM_P1;HPM_P2
2021/08/31 00:01:29;;;;;;;14.73;11.07;;;22.10;76.10;;;;;;4841425;29;20030;-61
2021/08/31 00:03:55;;;;;;;14.55;12.10;;;22.10;76.20;;;;;;4841355;29;20113;-61
2021/08/31 00:06:21;;;;;;;12.43;9.80;;;22.10;76.40;;;;;;4840914;29;20121;-60
2021/08/31 00:08:47;;;;;;;11.38;8.52;;;22.00;76.40;;;;;;4841546;29;20058;-61
2021/08/31 00:11:12;;;;;;;12.20;9.00;;;22.00;76.50;;;;;;4841750;29;20137;-59
2021/08/31 00:13:38;;;;;;;11.55;8.80;;;22.00;76.50;;;;;;4840202;29;20038;-60
2021/08/31 00:16:05;;;;;;;11.82;9.32;;;22.10;76.50;;;;;;4841123;29;20069;-60
2021/08/31 00:18:30;;;;;;;11.95;9.23;;;22.10;76.50;;;;;;4840975;29;20390;-60
2021/08/31 00:20:56;;;;;;;12.43;8.25;;;22.10;76.40;;;;;;4841453;29;20034;-61
2021/08/31 00:23:22;;;;;;;12.63;9.40;;;22.10;76.40;;;;;;4841257;29;20113;-58
2021/08/31 00:25:52;;;;;;;11.52;8.80;;;22.10;76.30;;;;;;4840930;29;20069;-60
2021/08/31 00:28:18;;;;;;;11.63;8.93;;;22.20;76.20;;;;;;4841098;29;20068;-61
2021/08/31 00:30:44;;;;;;;13.38;10.52;;;22.20;76.70;;;;;;4841384;29;20053;-61
2021/08/31 00:33:10;;;;;;;13.05;10.02;;;22.20;76.00;;;;;;4841288;29;20449;-61
2021/08/31 00:35:35;;;;;;;12.98;10.07;;;22.20;76.10;;;;;;4841234;29;20114;-61
2021/08/31 00:38:01;;;;;;;12.23;9.77;;;22.20;76.70;;;;;;4841207;29;20547;-59
2021/08/31 00:40:26;;;;;;;13.15;10.27;;;22.20;76.00;;;;;;4840791;29;20094;-59
2021/08/31 00:42:52;;;;;;;13.10;10.80;;;22.20;76.00;;;;;;4840796;29;20037;-59
2021/08/31 00:45:18;;;;;;;13.52;10.80;;;22.20;76.00;;;;;;4841153;29;20030;-59
2021/08/31 00:47:44;;;;;;;14.55;11.18;;;22.30;76.70;;;;;;4841128;29;20034;-59
2021/08/31 00:50:10;;;;;;;14.48;11.20;;;22.20;76.00;;;;;;4841117;29;20062;-59
2021/08/31 00:52:39;;;;;;;14.15;11.55;;;22.20;76.10;;;;;;4840537;29;20374;-59
2021/08/31 00:55:09;;;;;;;15.23;12.25;;;22.20;76.00;;;;;;4841057;29;20407;-59
2021/08/31 00:57:35;;;;;;;12.10;10.13;;;22.20;75.90;;;;;;4840982;29;20405;-60
2021/08/31 01:00:01;;;;;;;13.95;11.45;;;22.10;76.10;;;;;;4841069;29;20508;-60
2021/08/31 01:02:27;;;;;;;13.32;10.93;;;22.10;76.10;;;;;;4840553;29;20033;-60
2021/08/31 01:04:53;;;;;;;15.20;12.15;;;22.10;76.10;;;;;;4840815;29;20038;-61
2021/08/31 01:07:18;;;;;;;14.13;11.18;;;22.20;76.20;;;;;;4841133;29;20034;-61
2021/08/31 01:09:45;;;;;;;14.73;11.65;;;22.10;76.10;;;;;;4840970;29;20065;-60
2021/08/31 01:12:11;;;;;;;15.27;11.20;;;22.20;76.20;;;;;;4824534;29;20030;-61
2021/08/31 01:14:38;;;;;;;15.38;11.65;;;22.20;76.10;;;;;;4840912;29;20481;-61
2021/08/31 01:17:03;;;;;;;15.70;12.27;;;22.20;76.00;;;;;;4840500;29;20045;-59
2021/08/31 01:19:31;;;;;;;15.20;13.00;;;22.20;75.90;;;;;;4840721;29;20058;-59
2021/08/31 01:22:15;;;;;;;15.02;11.70;;;22.10;76.00;;;;;;4840842;29;20026;-59
2021/08/31 01:24:42;;;;;;;15.70;12.27;;;22.10;75.90;;;;;;4840342;29;20026;-59
2021/08/31 01:27:08;;;;;;;16.85;12.82;;;22.10;76.10;;;;;;4832829;29;20026;-60
2021/08/31 01:29:35;;;;;;;17.25;13.68;;;22.10;76.10;;;;;;4830359;29;20022;-59
2021/08/31 01:32:02;;;;;;;15.52;12.63;;;22.10;76.10;;;;;;4844350;29;20030;-59
2021/08/31 01:34:28;;;;;;;16.15;12.43;;;22.00;76.10;;;;;;4844334;29;20041;-59
2021/08/31 01:36:53;;;;;;;14.73;11.48;;;22.00;76.20;;;;;;4844164;29;20025;-60
2021/08/31 01:39:19;;;;;;;16.27;12.60;;;22.00;76.30;;;;;;4843885;29;20542;-60
2021/08/31 01:41:45;;;;;;;16.67;13.00;;;21.90;76.30;;;;;;4844136;29;20101;-59
2021/08/31 01:44:11;;;;;;;17.42;13.00;;;21.90;76.30;;;;;;4843801;29;20033;-60
2021/08/31 01:46:36;;;;;;;17.67;13.32;;;21.90;76.50;;;;;;4843925;29;20030;-60
2021/08/31 01:49:02;;;;;;;16.33;11.98;;;21.90;76.60;;;;;;4844094;29;20439;-60
2021/08/31 01:51:28;;;;;;;17.17;12.55;;;21.90;76.70;;;;;;4843704;29;20424;-60
2021/08/31 01:53:54;;;;;;;16.80;12.02;;;21.90;76.70;;;;;;4844014;29;20038;-60
2021/08/31 01:56:19;;;;;;;17.63;13.10;;;21.80;76.60;;;;;;4843797;29;20037;-60
2021/08/31 01:58:45;;;;;;;17.02;12.25;;;21.80;76.70;;;;;;4843712;29;20030;-60
2021/08/31 02:01:11;;;;;;;16.40;12.25;;;21.80;76.70;;;;;;4843791;29;20029;-60
2021/08/31 02:03:36;;;;;;;17.17;12.13;;;21.70;76.80;;;;;;4843453;29;20117;-60
2021/08/31 02:06:02;;;;;;;16.52;12.27;;;21.70;76.90;;;;;;4843684;29;20121;-60
2021/08/31 02:08:28;;;;;;;15.60;10.95;;;21.60;77.00;;;;;;4843805;29;20109;-60
2021/08/31 02:10:53;;;;;;;17.40;12.30;;;21.50;77.10;;;;;;4843739;29;20093;-60
2021/08/31 02:13:19;;;;;;;16.23;11.65;;;21.50;77.90;;;;;;4843788;29;20513;-60
2021/08/31 02:15:45;;;;;;;15.00;10.70;;;21.50;77.30;;;;;;4843127;29;20042;-60
2021/08/31 02:18:10;;;;;;;14.07;10.15;;;21.40;77.40;;;;;;4843294;29;20058;-59
2021/08/31 02:20:36;;;;;;;15.85;11.10;;;21.40;77.40;;;;;;4843456;29;20042;-59
2021/08/31 02:23:02;;;;;;;15.30;10.95;;;21.40;77.30;;;;;;4843335;29;20041;-60
2021/08/31 02:25:28;;;;;;;17.10;12.45;;;21.40;77.30;;;;;;4842942;29;20034;-60
2021/08/31 02:27:53;;;;;;;19.45;12.10;;;21.40;77.50;;;;;;4843113;29;20363;-60
2021/08/31 02:30:19;;;;;;;15.98;10.88;;;21.40;77.70;;;;;;4843450;29;20432;-60
2021/08/31 02:32:46;;;;;;;14.15;9.88;;;21.30;77.50;;;;;;4842067;29;20034;-60
2021/08/31 02:35:12;;;;;;;16.42;11.00;;;21.40;77.60;;;;;;4843353;29;20390;-60
2021/08/31 02:37:38;;;;;;;18.35;12.38;;;21.40;77.40;;;;;;4842951;29;20034;-60
2021/08/31 02:40:05;;;;;;;17.90;11.98;;;21.40;77.40;;;;;;4843208;29;20041;-60
2021/08/31 02:42:31;;;;;;;19.83;12.23;;;21.30;77.30;;;;;;4842719;29;20034;-60
2021/08/31 02:44:56;;;;;;;17.20;11.45;;;21.20;77.50;;;;;;4842950;29;20030;-60
2021/08/31 02:47:22;;;;;;;18.33;12.07;;;21.10;77.60;;;;;;4843005;29;20037;-60
2021/08/31 02:49:48;;;;;;;16.45;11.75;;;21.00;77.70;;;;;;4842737;29;20056;-60
2021/08/31 02:52:14;;;;;;;15.75;10.15;;;21.10;77.80;;;;;;4842983;29;20026;-60
2021/08/31 02:54:40;;;;;;;15.50;10.23;;;21.00;77.70;;;;;;4843149;29;20721;-60
2021/08/31 02:57:06;;;;;;;16.42;11.00;;;21.00;77.70;;;;;;4843098;29;20150;-60
2021/08/31 02:59:31;;;;;;;18.05;11.68;;;20.90;77.70;;;;;;4842958;29;20060;-60
2021/08/31 03:04:23;;;;;;;17.50;11.50;;;20.90;77.70;;;;;;4842739;29;20098;-60
2021/08/31 03:06:48;;;;;;;14.65;9.77;;;20.80;77.90;;;;;;4842530;29;20034;-60
2021/08/31 03:09:14;;;;;;;14.40;9.10;;;20.80;78.00;;;;;;4831886;29;20030;-60
2021/08/31 03:11:40;;;;;;;15.50;10.10;;;20.80;77.90;;;;;;4842623;29;20082;-60
2021/08/31 03:14:05;;;;;;;15.52;10.50;;;20.80;77.90;;;;;;4842575;29;20026;-60
2021/08/31 03:16:31;;;;;;;15.25;10.25;;;20.70;77.80;;;;;;4842437;29;20073;-60
2021/08/31 03:18:57;;;;;;;16.88;10.48;;;20.60;77.80;;;;;;4842123;29;20054;-60
2021/08/31 03:21:22;;;;;;;14.43;9.93;;;20.60;78.00;;;;;;4842478;29;20099;-60
2021/08/31 03:23:48;;;;;;;15.60;9.90;;;20.50;78.10;;;;;;4842344;29;20466;-60
2021/08/31 03:26:14;;;;;;;15.30;10.00;;;20.50;78.20;;;;;;4842156;29;20064;-60
2021/08/31 03:28:39;;;;;;;14.00;9.35;;;20.50;78.30;;;;;;4825826;29;20056;-59
2021/08/31 03:31:05;;;;;;;16.48;10.70;;;20.50;78.30;;;;;;4841982;29;20033;-60
2021/08/31 03:33:30;;;;;;;16.67;10.95;;;20.40;78.30;;;;;;4842275;29;20038;-59
2021/08/31 03:35:56;;;;;;;16.63;10.63;;;20.40;78.40;;;;;;4842261;29;20090;-62
2021/08/31 03:38:22;;;;;;;16.10;10.80;;;20.30;78.40;;;;;;4842006;29;20041;-59
2021/08/31 03:40:47;;;;;;;16.15;10.82;;;20.30;78.60;;;;;;4842172;29;20033;-61
2021/08/31 03:43:13;;;;;;;14.75;10.23;;;20.20;78.70;;;;;;4842056;29;20550;-61
2021/08/31 03:45:39;;;;;;;15.50;10.60;;;20.10;78.90;;;;;;4841889;29;20065;-61
2021/08/31 03:48:05;;;;;;;14.85;9.95;;;20.10;79.00;;;;;;4842038;29;20026;-60
2021/08/31 03:50:30;;;;;;;15.05;10.10;;;20.10;79.00;;;;;;4841845;29;20393;-60
2021/08/31 03:52:56;;;;;;;14.73;10.25;;;20.10;79.00;;;;;;4841694;29;20032;-59
2021/08/31 03:55:22;;;;;;;15.07;10.75;;;20.10;79.20;;;;;;4841511;29;20045;-60
2021/08/31 03:57:48;;;;;;;15.35;10.48;;;20.10;79.20;;;;;;4841942;29;20034;-60
2021/08/31 04:00:14;;;;;;;17.10;11.50;;;20.10;79.00;;;;;;4841759;29;20045;-59
2021/08/31 04:02:39;;;;;;;16.13;11.63;;;20.10;79.10;;;;;;4841791;29;20508;-60
2021/08/31 04:05:06;;;;;;;15.45;10.52;;;20.00;79.30;;;;;;4841563;29;20034;-59
2021/08/31 04:07:32;;;;;;;12.57;9.23;;;20.00;79.40;;;;;;4841639;29;20044;-59
2021/08/31 04:09:57;;;;;;;14.75;10.35;;;20.00;79.60;;;;;;4841732;29;20450;-60
2021/08/31 04:12:23;;;;;;;13.32;9.18;;;20.00;79.50;;;;;;4841562;29;20074;-60
2021/08/31 04:14:49;;;;;;;14.57;9.60;;;20.00;79.40;;;;;;4841396;29;20040;-60
2021/08/31 04:17:14;;;;;;;13.00;8.93;;;20.00;79.40;;;;;;4841102;29;20045;-60
2021/08/31 04:19:41;;;;;;;12.98;9.00;;;20.00;79.50;;;;;;4841130;29;20061;-60
2021/08/31 04:22:06;;;;;;;12.63;8.75;;;20.10;79.50;;;;;;4841309;29;20030;-60
2021/08/31 04:24:32;;;;;;;13.80;9.45;;;20.10;79.50;;;;;;4841214;29;20048;-60
2021/08/31 04:26:58;;;;;;;13.65;9.38;;;20.10;79.30;;;;;;4841331;29;20033;-60
2021/08/31 04:29:24;;;;;;;13.82;9.68;;;20.10;79.30;;;;;;4840997;29;20036;-60
2021/08/31 04:31:49;;;;;;;12.02;8.77;;;20.20;79.30;;;;;;4840897;29;20034;-60
2021/08/31 04:34:15;;;;;;;12.93;8.88;;;20.20;79.10;;;;;;4841015;29;20030;-60
2021/08/31 04:36:41;;;;;;;12.30;8.32;;;20.30;79.10;;;;;;4840971;29;20030;-61
2021/08/31 04:39:06;;;;;;;12.77;8.75;;;20.30;78.90;;;;;;4841227;29;20443;-60
2021/08/31 04:41:32;;;;;;;12.68;8.90;;;20.30;78.90;;;;;;4841139;29;20422;-61
2021/08/31 04:43:57;;;;;;;12.88;8.90;;;20.40;79.50;;;;;;4840829;29;20410;-60
2021/08/31 04:46:23;;;;;;;14.70;9.95;;;20.40;78.70;;;;;;4840950;29;20065;-60
2021/08/31 04:48:49;;;;;;;12.45;8.70;;;20.40;78.60;;;;;;4841220;29;20078;-61
2021/08/31 04:51:14;;;;;;;12.25;8.68;;;20.40;78.40;;;;;;4841171;29;20129;-61
2021/08/31 04:53:40;;;;;;;12.77;9.05;;;20.50;78.50;;;;;;4841095;29;20030;-59
2021/08/31 04:56:06;;;;;;;10.90;7.55;;;20.50;78.30;;;;;;4834275;29;20194;-61
2021/08/31 04:58:31;;;;;;;12.95;8.68;;;20.50;78.30;;;;;;4837541;29;20525;-60
2021/08/31 05:00:57;;;;;;;12.13;8.55;;;20.50;78.20;;;;;;4840399;29;20478;-60
2021/08/31 05:03:22;;;;;;;11.88;8.43;;;20.50;78.10;;;;;;4840847;29;20493;-60
2021/08/31 05:05:48;;;;;;;12.32;8.40;;;20.50;78.00;;;;;;4844581;29;20027;-59
2021/08/31 05:08:14;;;;;;;12.25;8.50;;;20.60;77.80;;;;;;4844477;29;20033;-60
2021/08/31 05:10:39;;;;;;;10.65;7.43;;;20.50;78.00;;;;;;4844672;29;20557;-60
2021/08/31 05:13:05;;;;;;;11.00;7.88;;;20.60;78.30;;;;;;4844265;29;20034;-60
2021/08/31 05:15:31;;;;;;;10.73;7.65;;;20.60;77.90;;;;;;4844477;29;20022;-61
2021/08/31 05:17:59;;;;;;;11.63;8.30;;;20.60;77.80;;;;;;4844543;29;20045;-59
2021/08/31 05:20:27;;;;;;;11.95;8.65;;;20.70;77.50;;;;;;4844438;29;20030;-60
2021/08/31 05:22:54;;;;;;;10.20;7.45;;;20.60;77.40;;;;;;4844236;29;20117;-60
2021/08/31 05:25:20;;;;;;;10.75;7.80;;;20.70;77.50;;;;;;4844017;29;20086;-60
2021/08/31 05:27:46;;;;;;;11.77;7.68;;;20.70;77.40;;;;;;4844356;29;20439;-59
2021/08/31 05:30:12;;;;;;;11.93;8.15;;;20.70;77.20;;;;;;4844249;29;20034;-60
2021/08/31 05:32:37;;;;;;;10.60;8.15;;;20.70;77.20;;;;;;4843938;29;20382;-59
2021/08/31 05:35:04;;;;;;;10.85;7.90;;;20.70;77.20;;;;;;4844260;29;20041;-59
2021/08/31 05:37:29;;;;;;;10.63;7.47;;;20.70;77.20;;;;;;4844000;29;20040;-61
2021/08/31 05:39:55;;;;;;;11.38;8.30;;;20.70;77.20;;;;;;4844125;29;20104;-60
2021/08/31 05:42:21;;;;;;;10.75;8.23;;;20.70;77.20;;;;;;4843793;29;20030;-60
2021/08/31 05:44:46;;;;;;;12.30;8.43;;;20.70;77.10;;;;;;4843583;29;20500;-61
2021/08/31 05:47:12;;;;;;;10.98;7.80;;;20.70;77.70;;;;;;4843905;29;20041;-60
2021/08/31 05:49:38;;;;;;;11.02;8.55;;;20.70;77.00;;;;;;4843888;29;20033;-62
2021/08/31 05:52:04;;;;;;;10.32;7.68;;;20.80;76.90;;;;;;4843807;29;20105;-64
2021/08/31 05:54:30;;;;;;;10.63;7.88;;;20.80;76.80;;;;;;4843673;29;20029;-61
2021/08/31 05:56:59;;;;;;;9.68;7.38;;;20.80;76.80;;;;;;4843580;29;20030;-61
2021/08/31 05:59:25;;;;;;;12.52;8.43;;;20.80;76.70;;;;;;4843795;29;20382;-60
2021/08/31 06:01:50;;;;;;;10.45;8.07;;;20.90;76.70;;;;;;4843453;29;20034;-60
2021/08/31 06:04:16;;;;;;;10.20;7.07;;;21.00;76.50;;;;;;4843786;29;20366;-60
2021/08/31 06:06:42;;;;;;;11.10;7.43;;;21.00;76.30;;;;;;4843520;29;20045;-61
2021/08/31 06:09:08;;;;;;;10.02;7.22;;;21.20;76.10;;;;;;4843702;29;20031;-60
2021/08/31 06:11:38;;;;;;;10.85;7.38;;;21.20;75.90;;;;;;4843382;29;20041;-60
2021/08/31 06:14:05;;;;;;;9.25;6.68;;;21.20;75.50;;;;;;4843583;29;20030;-60
2021/08/31 06:16:31;;;;;;;10.02;7.00;;;21.20;75.50;;;;;;4842880;29;20030;-60
2021/08/31 06:18:57;;;;;;;10.10;7.47;;;21.30;75.50;;;;;;4843366;29;20064;-60
2021/08/31 06:21:23;;;;;;;10.40;7.90;;;21.40;75.40;;;;;;4843193;29;20045;-61
2021/08/31 06:23:48;;;;;;;9.88;7.97;;;21.40;75.10;;;;;;4843189;29;20030;-62
2021/08/31 06:26:14;;;;;;;10.63;8.48;;;21.40;75.00;;;;;;4842973;29;20041;-60
2021/08/31 06:28:40;;;;;;;11.82;9.07;;;21.50;75.00;;;;;;4842772;29;20030;-61
2021/08/31 06:31:05;;;;;;;12.57;8.85;;;21.60;74.80;;;;;;4842933;29;20037;-61
2021/08/31 06:33:31;;;;;;;11.93;8.70;;;21.60;74.60;;;;;;4842592;29;20026;-60
2021/08/31 06:35:57;;;;;;;11.05;9.20;;;21.70;74.80;;;;;;4842923;29;20034;-61
2021/08/31 06:38:22;;;;;;;14.02;10.65;;;21.90;74.50;;;;;;4842893;29;20041;-61
2021/08/31 06:40:48;;;;;;;12.07;10.02;;;22.00;73.80;;;;;;4843030;29;20397;-60
2021/08/31 06:43:14;;;;;;;11.68;9.60;;;22.10;73.30;;;;;;4841538;29;20034;-60
2021/08/31 06:45:40;;;;;;;12.10;9.98;;;22.10;73.40;;;;;;4842100;29;20030;-60
2021/08/31 06:48:05;;;;;;;10.77;8.77;;;22.30;73.10;;;;;;4842787;29;20846;-60
2021/08/31 06:50:32;;;;;;;11.00;8.88;;;22.30;72.40;;;;;;4842246;29;20509;-60
2021/08/31 06:52:58;;;;;;;10.25;7.68;;;22.40;72.00;;;;;;4842620;29;20026;-60
2021/08/31 06:55:24;;;;;;;10.35;8.13;;;22.40;72.20;;;;;;4842098;29;20030;-61
2021/08/31 06:57:49;;;;;;;11.30;7.97;;;22.50;71.60;;;;;;4841676;29;20045;-60
2021/08/31 07:00:15;;;;;;;8.93;7.25;;;22.60;70.90;;;;;;4840660;29;20090;-60
2021/08/31 07:02:41;;;;;;;9.18;6.97;;;22.60;70.60;;;;;;4841950;29;20105;-60
2021/08/31 07:05:07;;;;;;;8.82;6.68;;;22.70;70.70;;;;;;4842042;29;20546;-60
2021/08/31 07:07:33;;;;;;;9.02;6.57;;;22.80;70.60;;;;;;4842162;29;20343;-60
2021/08/31 07:09:59;;;;;;;9.10;7.30;;;22.90;70.00;;;;;;4841099;29;20030;-61
2021/08/31 07:12:25;;;;;;;9.77;7.30;;;23.00;69.40;;;;;;4842491;29;20033;-60
2021/08/31 07:14:52;;;;;;;9.77;7.03;;;23.00;69.30;;;;;;4842284;29;20022;-60
2021/08/31 07:17:18;;;;;;;8.30;6.50;;;23.00;69.40;;;;;;4841597;29;20041;-60
2021/08/31 07:19:44;;;;;;;8.10;6.00;;;23.10;69.40;;;;;;4830729;29;20043;-61
2021/08/31 07:22:10;;;;;;;8.13;5.75;;;23.20;69.30;;;;;;4824512;29;20029;-60
2021/08/31 07:24:36;;;;;;;7.43;5.90;;;23.40;69.00;;;;;;4842042;29;20026;-60
2021/08/31 07:27:03;;;;;;;7.95;5.35;;;23.50;68.50;;;;;;4841408;29;20546;-61
2021/08/31 07:29:28;;;;;;;6.68;4.90;;;23.70;68.00;;;;;;4842024;29;20079;-60
2021/08/31 07:31:54;;;;;;;7.55;4.25;;;23.90;67.70;;;;;;4842215;29;20033;-60
2021/08/31 07:34:20;;;;;;;5.90;4.47;;;24.10;67.10;;;;;;4841843;29;20034;-61
2021/08/31 07:36:46;;;;;;;6.68;4.45;;;24.20;66.40;;;;;;4840342;29;20056;-62
2021/08/31 07:39:12;;;;;;;6.38;4.40;;;24.30;65.60;;;;;;4841753;29;20057;-61
2021/08/31 07:41:38;;;;;;;6.10;4.22;;;24.40;65.00;;;;;;4841352;29;20037;-60
2021/08/31 07:44:04;;;;;;;6.38;4.60;;;24.50;65.20;;;;;;4841125;29;20033;-61
2021/08/31 07:46:30;;;;;;;6.13;4.13;;;24.70;64.20;;;;;;4841534;29;20030;-62
2021/08/31 07:48:56;;;;;;;5.82;3.88;;;24.80;63.40;;;;;;4841721;29;20022;-61
2021/08/31 07:51:22;;;;;;;6.18;4.00;;;24.90;63.10;;;;;;4841363;29;20086;-61
2021/08/31 07:53:48;;;;;;;5.50;3.60;;;25.00;62.70;;;;;;4841638;29;20037;-61
2021/08/31 07:56:15;;;;;;;5.13;3.40;;;25.00;62.70;;;;;;4840233;29;20061;-61
2021/08/31 07:58:40;;;;;;;5.40;3.30;;;25.20;62.40;;;;;;4841566;29;20359;-61
2021/08/31 08:01:06;;;;;;;4.90;3.20;;;25.30;62.30;;;;;;4841428;29;20041;-60
2021/08/31 08:03:32;;;;;;;4.97;3.30;;;25.40;61.80;;;;;;4840967;29;20081;-61
2021/08/31 08:05:58;;;;;;;6.03;3.13;;;25.50;61.40;;;;;;4840786;29;20052;-60
2021/08/31 08:08:24;;;;;;;5.35;3.60;;;25.70;61.30;;;;;;4841080;29;20474;-61
2021/08/31 08:10:51;;;;;;;6.43;3.40;;;25.80;60.00;;;;;;4841418;29;20022;-60
2021/08/31 08:13:17;;;;;;;6.22;3.20;;;25.90;59.40;;;;;;4840884;29;20121;-60
2021/08/31 08:15:43;;;;;;;4.80;3.00;;;26.10;59.10;;;;;;4840953;29;20030;-60
2021/08/31 08:18:09;;;;;;;4.80;3.10;;;26.20;58.30;;;;;;4841115;29;20386;-60
2021/08/31 08:20:35;;;;;;;5.40;2.72;;;26.30;57.80;;;;;;4840982;29;20042;-60
2021/08/31 08:23:00;;;;;;;4.47;2.78;;;26.40;57.40;;;;;;4841258;29;20030;-60
2021/08/31 08:25:26;;;;;;;4.80;2.63;;;26.50;56.80;;;;;;4840878;29;20541;-60
2021/08/31 08:27:52;;;;;;;3.90;2.40;;;26.50;56.50;;;;;;4840427;29;20120;-60
2021/08/31 08:30:18;;;;;;;4.18;2.30;;;26.60;56.70;;;;;;4840787;29;20033;-60
2021/08/31 08:32:44;;;;;;;4.25;2.40;;;26.70;56.30;;;;;;4841248;29;20404;-61
2021/08/31 08:35:12;;;;;;;4.07;2.20;;;26.90;56.10;;;;;;4841092;29;20041;-61
2021/08/31 08:37:39;;;;;;;4.68;2.22;;;27.00;56.10;;;;;;4841116;29;20041;-61
2021/08/31 08:40:06;;;;;;;3.70;2.00;;;27.20;55.50;;;;;;4841060;29;20029;-61
2021/08/31 08:42:32;;;;;;;4.60;2.05;;;27.30;54.90;;;;;;4840437;29;20370;-61
2021/08/31 08:44:58;;;;;;;3.80;2.10;;;27.40;54.50;;;;;;4839972;29;20030;-60
2021/08/31 08:47:23;;;;;;;4.28;2.20;;;27.50;54.00;;;;;;4840174;29;20026;-60
2021/08/31 08:49:50;;;;;;;4.55;2.25;;;27.60;53.60;;;;;;4840365;29;20054;-60
2021/08/31 08:52:16;;;;;;;6.55;3.10;;;27.60;53.70;;;;;;4840881;29;20433;-59
2021/08/31 08:54:43;;;;;;;6.05;2.72;;;27.80;53.60;;;;;;4840054;29;20122;-64
2021/08/31 08:57:09;;;;;;;5.85;2.40;;;27.90;53.70;;;;;;4840886;29;20736;-64
2021/08/31 08:59:39;;;;;;;5.00;2.40;;;28.00;53.60;;;;;;4840769;29;20113;-60
2021/08/31 09:02:05;;;;;;;5.03;2.20;;;28.20;53.50;;;;;;4828392;29;20030;-61
2021/08/31 09:04:49;;;;;;;4.57;2.25;;;28.40;53.00;;;;;;4841591;29;20036;-60
2021/08/31 09:07:23;;;;;;;6.50;2.42;;;28.50;52.70;;;;;;4851377;29;20105;-60
2021/08/31 09:10:08;;;;;;;4.22;1.92;;;28.60;52.60;;;;;;4838719;29;20162;-60
2021/08/31 09:12:35;;;;;;;3.88;1.80;;;28.70;52.80;;;;;;4839908;29;20034;-60
2021/08/31 09:15:27;;;;;;;4.18;1.88;;;28.80;52.80;;;;;;4839493;29;20517;-64
2021/08/31 09:18:06;;;;;;;;;;;28.90;52.50;;;;;;4839204;29;20580;-69
2021/08/31 09:20:54;;;;;;;3.55;1.50;;;29.10;52.00;;;;;;4839845;29;19916;-69
2021/08/31 09:23:28;;;;;;;3.25;1.60;;;29.30;52.50;;;;;;4839945;29;20041;-65
2021/08/31 09:25:56;;;;;;;3.50;1.70;;;29.40;52.30;;;;;;4840197;29;20061;-66
2021/08/31 09:28:31;;;;;;;4.10;1.80;;;29.60;52.10;;;;;;4840439;29;20038;-66
2021/08/31 09:31:11;;;;;;;3.67;1.75;;;29.70;51.90;;;;;;4840478;29;20040;-64
2021/08/31 09:33:43;;;;;;;4.03;1.88;;;29.90;51.90;;;;;;4835310;29;20022;-65
2021/08/31 09:36:20;;;;;;;4.60;1.85;;;30.10;51.60;;;;;;4839987;29;20034;-64
2021/08/31 09:39:02;;;;;;;3.13;1.67;;;30.30;50.50;;;;;;4840398;29;20431;-66
2021/08/31 09:41:37;;;;;;;3.40;1.80;;;30.40;49.80;;;;;;4838579;29;20034;-65
2021/08/31 09:44:11;;;;;;;2.97;1.58;;;30.50;50.10;;;;;;4843495;29;20388;-61
2021/08/31 09:46:56;;;;;;;2.75;1.67;;;30.60;49.70;;;;;;4841887;29;20070;-61
2021/08/31 09:49:22;;;;;;;3.30;1.60;;;30.70;48.70;;;;;;4839579;29;20105;-69
2021/08/31 09:52:11;;;;;;;3.65;1.80;;;30.80;48.90;;;;;;4842176;29;20105;-64
2021/08/31 09:54:48;;;;;;;3.05;1.55;;;31.00;48.20;;;;;;4843740;29;20029;-67
2021/08/31 09:57:27;;;;;;;3.85;1.83;;;31.00;47.50;;;;;;4843668;29;20026;-69
2021/08/31 09:59:53;;;;;;;2.83;1.70;;;31.10;47.00;;;;;;4843263;29;20030;-66
2021/08/31 10:02:19;;;;;;;3.05;1.70;;;31.00;46.60;;;;;;4843167;29;20097;-61
2021/08/31 10:04:45;;;;;;;3.25;1.60;;;31.10;46.30;;;;;;4842588;29;20466;-62
2021/08/31 10:07:13;;;;;;;3.20;1.70;;;31.10;46.20;;;;;;4843166;29;20090;-60
2021/08/31 10:09:39;;;;;;;4.18;2.10;;;31.10;45.80;;;;;;4842865;29;20045;-62
2021/08/31 10:12:07;;;;;;;2.67;1.50;;;31.10;45.70;;;;;;4843032;29;20482;-64
2021/08/31 10:14:43;;;;;;;2.63;1.55;;;31.20;46.10;;;;;;4843661;29;20428;-62
2021/08/31 10:17:12;;;;;;;3.03;1.65;;;31.30;46.40;;;;;;4843409;29;20046;-61
2021/08/31 10:19:42;;;;;;;4.13;1.70;;;31.50;45.90;;;;;;4843267;29;20053;-60
2021/08/31 10:22:10;;;;;;;2.65;1.52;;;31.60;45.00;;;;;;4843327;29;20396;-68
2021/08/31 10:24:36;;;;;;;2.45;1.50;;;31.80;44.20;;;;;;4839309;29;20034;-64
2021/08/31 10:27:39;;;;;;;3.22;1.80;;;31.70;43.70;;;;;;4843013;29;20163;-66
2021/08/31 10:30:20;;;;;;;3.28;1.70;;;31.80;43.60;;;;;;4767884;30;20035;-62
2021/08/31 10:32:58;;;;;;;3.33;1.70;;;31.90;44.00;;;;;;4834862;29;20124;-61
2021/08/31 10:35:35;;;;;;;3.45;1.63;;;32.00;44.20;;;;;;4842579;29;20113;-61
2021/08/31 10:38:04;;;;;;;3.10;1.52;;;32.20;44.00;;;;;;4842164;29;20092;-61
2021/08/31 10:40:37;;;;;;;2.28;1.40;;;32.40;43.50;;;;;;4842659;29;20034;-60
2021/08/31 10:43:06;;;;;;;2.72;1.40;;;32.50;43.30;;;;;;4841909;29;20022;-60
2021/08/31 10:45:33;;;;;;;2.30;1.35;;;32.50;43.10;;;;;;4842396;29;20423;-61
2021/08/31 10:48:00;;;;;;;2.65;1.50;;;32.50;43.40;;;;;;4842901;29;20113;-68
2021/08/31 10:50:30;;;;;;;2.88;1.48;;;32.40;43.60;;;;;;4842834;29;20053;-68
2021/08/31 10:53:03;;;;;;;2.70;1.50;;;32.40;43.30;;;;;;4842195;29;20037;-61
2021/08/31 10:55:29;;;;;;;2.67;1.50;;;32.30;43.20;;;;;;4842423;29;20432;-60
2021/08/31 10:58:01;;;;;;;2.42;1.38;;;32.40;43.30;;;;;;4842453;29;20036;-60
2021/08/31 11:00:28;;;;;;;2.08;1.38;;;32.40;43.40;;;;;;4842155;29;20040;-61
2021/08/31 11:02:56;;;;;;;3.53;1.70;;;32.30;43.70;;;;;;4841805;29;20091;-61
2021/08/31 11:05:25;;;;;;;2.60;1.50;;;32.40;43.80;;;;;;4837601;29;20144;-61
2021/08/31 11:08:13;;;;;;;3.78;1.80;;;32.60;44.10;;;;;;4841802;29;20109;-62
2021/08/31 11:10:42;;;;;;;4.00;1.80;;;33.00;43.40;;;;;;4841782;29;20026;-66
2021/08/31 11:13:16;;;;;;;2.60;1.40;;;33.20;42.40;;;;;;4842211;29;20033;-61
2021/08/31 11:15:44;;;;;;;3.28;1.75;;;33.10;42.20;;;;;;4842128;29;20410;-61
2021/08/31 11:18:12;;;;;;;4.25;2.28;;;33.20;42.70;;;;;;4841570;29;20054;-62
2021/08/31 11:20:39;;;;;;;5.85;3.60;;;33.40;42.80;;;;;;4841871;29;20042;-61
2021/08/31 11:23:14;;;;;;;5.40;3.20;;;33.70;42.90;;;;;;4842159;29;20034;-61
2021/08/31 11:25:42;;;;;;;5.80;2.80;;;34.00;43.50;;;;;;4840643;29;20037;-64
2021/08/31 11:28:12;;;;;;;4.95;2.60;;;34.40;42.80;;;;;;4839977;29;20041;-65
2021/08/31 11:30:50;;;;;;;3.75;1.88;;;34.80;42.80;;;;;;4852457;29;20033;-63
2021/08/31 11:33:24;;;;;;;4.03;1.90;;;35.50;42.40;;;;;;4841708;29;20034;-66
2021/08/31 11:35:56;;;;;;;4.07;1.90;;;36.00;42.20;;;;;;4849125;29;20033;-64
2021/08/31 11:38:36;;;;;;;3.65;1.83;;;36.10;40.80;;;;;;4823743;29;20022;-63
2021/08/31 11:41:17;;;;;;;4.25;1.75;;;36.00;40.20;;;;;;4823665;29;20105;-64
2021/08/31 11:43:58;;;;;;;3.15;1.67;;;36.20;40.10;;;;;;4823554;29;20034;-64
2021/08/31 11:46:24;;;;;;;3.38;1.63;;;36.50;40.80;;;;;;4840474;29;20026;-61
2021/08/31 11:49:04;;;;;;;4.30;2.00;;;37.00;41.00;;;;;;4841598;29;20037;-61
2021/08/31 11:51:29;;;;;;;3.78;1.80;;;37.50;40.60;;;;;;4841282;29;20085;-61
2021/08/31 11:54:06;;;;;;;3.50;1.40;;;37.90;39.70;;;;;;4840865;29;20108;-61
2021/08/31 11:56:33;;;;;;;2.63;1.40;;;37.70;38.80;;;;;;4823575;29;20415;-61
2021/08/31 12:02:22;;;;;;;;;;;37.70;37.70;;;;;;4839765;29;20123;-62
2021/08/31 12:04:55;;;;;;;3.08;1.60;;;37.60;38.40;;;;;;4841308;29;19924;-60
2021/08/31 12:07:43;;;;;;;2.88;1.40;;;37.40;38.60;;;;;;4838592;29;20026;-60
2021/08/31 12:10:11;;;;;;;3.20;1.40;;;36.90;38.60;;;;;;4830241;29;20069;-61
2021/08/31 12:12:41;;;;;;;2.30;1.30;;;36.60;38.80;;;;;;4841338;29;20486;-61
2021/08/31 12:15:07;;;;;;;2.28;1.40;;;36.50;39.00;;;;;;4840850;29;20026;-61
2021/08/31 12:17:44;;;;;;;2.00;1.30;;;36.80;39.10;;;;;;4840787;29;20091;-60
2021/08/31 12:20:16;;;;;;;2.55;1.20;;;37.10;38.70;;;;;;4839736;29;20477;-60
2021/08/31 12:22:47;;;;;;;2.35;1.30;;;37.60;38.90;;;;;;4841130;29;20049;-62
2021/08/31 12:25:16;;;;;;;2.22;1.30;;;38.10;38.40;;;;;;4840757;29;20050;-62
2021/08/31 12:27:41;;;;;;;2.38;1.42;;;38.30;37.60;;;;;;4840904;29;20034;-61
2021/08/31 12:30:09;;;;;;;2.83;1.30;;;37.90;37.10;;;;;;4840759;29;20469;-62
2021/08/31 12:32:36;;;;;;;2.83;1.40;;;37.40;37.30;;;;;;4840855;29;20030;-64
2021/08/31 12:35:25;;;;;;;1.98;1.20;;;37.20;38.00;;;;;;4840865;29;20044;-63
2021/08/31 12:38:08;;;;;;;1.95;1.30;;;37.30;37.30;;;;;;4840715;29;20026;-63
2021/08/31 12:40:37;;;;;;;2.22;1.23;;;37.00;36.80;;;;;;4841118;29;20049;-63
2021/08/31 12:43:09;;;;;;;2.60;1.40;;;36.60;37.70;;;;;;4840905;29;20026;-64
2021/08/31 12:45:35;;;;;;;1.83;1.27;;;36.90;38.20;;;;;;4841100;29;20422;-64
2021/08/31 12:48:03;;;;;;;2.20;1.50;;;37.50;38.40;;;;;;4840796;29;20105;-63